createdAt,value
2023-05-01T00:02:05.240Z,11.53
2023-05-01T00:04:34.449Z,11.52
2023-05-01T00:07:01.999Z,11.54
2023-05-01T00:09:29.538Z,11.57
2023-05-01T00:11:57.082Z,11.59
2023-05-01T00:14:24.676Z,11.62
2023-05-01T00:16:52.194Z,11.61
2023-05-01T00:19:19.898Z,11.63
2023-05-01T00:21:47.985Z,11.63
2023-05-01T00:24:16.034Z,11.67
2023-05-01T00:26:44.137Z,11.69
2023-05-01T00:29:11.794Z,11.68
2023-05-01T00:31:39.415Z,11.68
2023-05-01T00:34:07.010Z,11.69
2023-05-01T00:36:34.588Z,11.72
2023-05-01T00:39:02.151Z,11.76
2023-05-01T00:41:29.795Z,11.77
2023-05-01T00:43:57.387Z,11.76
2023-05-01T00:46:25.965Z,11.77
2023-05-01T00:48:54.192Z,11.78
2023-05-01T00:51:22.421Z,11.79
2023-05-01T00:53:50.971Z,11.80
2023-05-01T00:56:18.935Z,11.79
2023-05-01T00:58:50.097Z,11.79
2023-05-01T01:01:17.894Z,11.78
2023-05-01T01:03:45.436Z,11.78
2023-05-01T01:06:23.892Z,11.76
2023-05-01T01:09:15.745Z,11.74
2023-05-01T01:12:13.218Z,11.67
2023-05-01T01:14:48.331Z,11.66
2023-05-01T01:17:18.757Z,11.67
2023-05-01T01:19:59.572Z,11.66
2023-05-01T01:22:29.426Z,11.66
2023-05-01T01:25:08.873Z,11.64
2023-05-01T01:27:54.867Z,11.63
2023-05-01T01:30:43.175Z,11.61
2023-05-01T01:33:48.265Z,11.59
2023-05-01T01:36:26.389Z,11.59
2023-05-01T01:39:13.256Z,11.57
2023-05-01T01:41:43.021Z,11.54
2023-05-01T01:44:24.612Z,11.54
2023-05-01T01:46:54.615Z,11.52
2023-05-01T01:49:25.361Z,11.51
2023-05-01T01:51:55.676Z,11.44
2023-05-01T01:54:30.326Z,11.43
2023-05-01T01:57:00.749Z,11.45
2023-05-01T01:59:31.719Z,11.39
2023-05-01T02:02:00.820Z,11.38
2023-05-01T02:04:30.122Z,11.36
2023-05-01T02:06:58.412Z,11.35
2023-05-01T02:09:28.963Z,11.38
2023-05-01T02:11:57.649Z,11.38
2023-05-01T02:14:27.580Z,11.40
2023-05-01T02:16:56.298Z,11.37
2023-05-01T02:19:25.115Z,11.35
2023-05-01T02:21:56.030Z,11.36
2023-05-01T02:24:26.703Z,11.34
2023-05-01T02:27:24.156Z,11.35
2023-05-01T02:29:52.846Z,11.34
2023-05-01T02:32:20.511Z,11.32
2023-05-01T02:34:48.103Z,11.31
2023-05-01T02:37:16.173Z,11.30
2023-05-01T02:39:43.938Z,11.29
2023-05-01T02:42:14.919Z,11.26
2023-05-01T02:45:00.098Z,11.26
2023-05-01T02:47:30.360Z,11.31
2023-05-01T02:49:59.469Z,11.34
2023-05-01T02:52:28.041Z,11.33
2023-05-01T02:54:56.664Z,11.33
2023-05-01T02:57:24.461Z,11.35
2023-05-01T02:59:52.076Z,11.31
2023-05-01T03:02:19.867Z,11.31
2023-05-01T03:04:47.501Z,11.33
2023-05-01T03:07:15.311Z,11.31
2023-05-01T03:09:42.884Z,11.30
2023-05-01T03:12:10.397Z,11.23
2023-05-01T03:14:37.942Z,11.28
2023-05-01T03:17:05.502Z,11.31
2023-05-01T03:19:33.052Z,11.28
2023-05-01T03:22:00.645Z,11.28
2023-05-01T03:24:28.160Z,11.31
2023-05-01T03:26:55.663Z,11.32
2023-05-01T03:29:23.260Z,11.30
2023-05-01T03:31:51.075Z,11.29
2023-05-01T03:34:18.866Z,11.30
2023-05-01T03:36:47.675Z,11.30
2023-05-01T03:39:15.638Z,11.29
2023-05-01T03:41:43.577Z,11.28
2023-05-01T03:44:11.113Z,11.28
2023-05-01T03:46:39.047Z,11.24
2023-05-01T03:49:06.824Z,11.26
2023-05-01T03:51:34.332Z,11.25
2023-05-01T03:54:02.088Z,11.24
2023-05-01T03:56:29.571Z,11.24
2023-05-01T03:58:59.851Z,11.25
2023-05-01T04:01:27.460Z,11.22
2023-05-01T04:03:55.087Z,11.26
2023-05-01T04:06:22.760Z,11.23
2023-05-01T04:08:50.575Z,11.23
2023-05-01T04:11:18.155Z,11.19
2023-05-01T04:13:45.700Z,11.17
2023-05-01T04:16:13.303Z,11.18
2023-05-01T04:18:41.116Z,11.22
2023-05-01T04:21:08.593Z,11.17
2023-05-01T04:23:36.151Z,11.21
2023-05-01T04:26:03.959Z,11.21
2023-05-01T04:28:31.710Z,11.24
2023-05-01T04:30:59.289Z,11.20
2023-05-01T04:33:26.841Z,11.22
2023-05-01T04:35:54.787Z,11.20
2023-05-01T04:38:22.330Z,11.20
2023-05-01T04:40:49.811Z,11.21
2023-05-01T04:43:17.345Z,11.17
2023-05-01T04:45:44.914Z,11.19
2023-05-01T04:48:12.423Z,11.19
2023-05-01T04:50:39.982Z,11.21
2023-05-01T04:53:07.642Z,11.20
2023-05-01T04:55:35.688Z,11.20
2023-05-01T04:58:03.303Z,11.16
2023-05-01T05:00:31.172Z,11.16
2023-05-01T05:02:59.141Z,11.08
2023-05-01T05:05:27.075Z,11.07
2023-05-01T05:07:55.950Z,10.93
2023-05-01T05:10:23.920Z,10.88
2023-05-01T05:12:52.657Z,10.91
2023-05-01T05:15:20.726Z,10.96
2023-05-01T05:17:48.608Z,10.95
2023-05-01T05:20:16.688Z,10.81
2023-05-01T05:22:44.210Z,10.79
2023-05-01T05:25:11.870Z,10.82
2023-05-01T05:27:39.423Z,10.82
2023-05-01T05:30:07.875Z,10.77
2023-05-01T05:32:38.598Z,10.84
2023-05-01T05:35:09.049Z,10.87
2023-05-01T05:37:37.048Z,10.69
2023-05-01T05:40:05.122Z,10.75
2023-05-01T05:42:33.959Z,10.83
2023-05-01T05:45:01.938Z,10.90
2023-05-01T05:47:30.116Z,10.87
2023-05-01T05:49:58.085Z,10.80
2023-05-01T05:52:25.828Z,10.84
2023-05-01T05:54:53.490Z,10.89
2023-05-01T05:57:21.252Z,10.85
2023-05-01T05:59:48.946Z,10.76
2023-05-01T06:02:18.425Z,10.65
2023-05-01T06:04:46.085Z,10.79
2023-05-01T06:07:13.620Z,10.66
2023-05-01T06:09:41.279Z,10.74
2023-05-01T06:12:09.081Z,10.84
2023-05-01T06:14:36.992Z,10.77
2023-05-01T06:17:05.346Z,10.83
2023-05-01T06:19:33.033Z,10.91
2023-05-01T06:22:00.568Z,10.98
2023-05-01T06:24:28.465Z,11.04
2023-05-01T06:26:56.024Z,11.07
2023-05-01T06:29:24.755Z,10.93
2023-05-01T06:31:52.593Z,10.97
2023-05-01T06:34:20.432Z,11.01
2023-05-01T06:36:47.986Z,11.02
2023-05-01T06:39:15.556Z,11.00
2023-05-01T06:41:45.640Z,11.09
2023-05-01T06:44:13.456Z,11.13
2023-05-01T06:46:41.131Z,11.24
2023-05-01T06:49:09.058Z,11.26
2023-05-01T06:51:36.741Z,11.22
2023-05-01T06:54:04.557Z,11.26
2023-05-01T06:56:32.130Z,11.20
2023-05-01T06:58:59.705Z,11.26
2023-05-01T07:01:27.476Z,11.30
2023-05-01T07:03:55.060Z,11.28
2023-05-01T07:06:22.787Z,11.36
2023-05-01T07:08:50.396Z,11.38
2023-05-01T07:11:18.071Z,11.38
2023-05-01T07:13:45.594Z,11.39
2023-05-01T07:16:16.117Z,11.40
2023-05-01T07:18:44.569Z,11.32
2023-05-01T07:21:12.313Z,11.35
2023-05-01T07:23:39.955Z,11.38
2023-05-01T07:26:07.613Z,11.33
2023-05-01T07:28:35.162Z,11.33
2023-05-01T07:31:02.634Z,11.37
2023-05-01T07:33:30.637Z,11.36
2023-05-01T07:35:58.238Z,11.37
2023-05-01T07:38:25.770Z,11.46
2023-05-01T07:40:56.468Z,11.42
2023-05-01T07:43:24.429Z,11.38
2023-05-01T07:45:59.595Z,11.42
2023-05-01T07:48:28.214Z,11.26
2023-05-01T07:50:56.138Z,11.11
2023-05-01T07:53:23.802Z,11.20
2023-05-01T07:55:54.235Z,11.25
2023-05-01T07:58:21.839Z,11.25
2023-05-01T08:00:49.424Z,11.23
2023-05-01T08:03:17.494Z,11.34
2023-05-01T08:05:45.313Z,11.39
2023-05-01T08:08:12.872Z,11.44
2023-05-01T08:10:40.074Z,11.42
2023-05-01T08:13:07.237Z,11.53
2023-05-01T08:15:35.306Z,11.51
2023-05-01T08:18:02.718Z,11.47
2023-05-01T08:20:29.887Z,11.56
2023-05-01T08:22:57.115Z,11.49
2023-05-01T08:25:24.306Z,11.51
2023-05-01T08:27:52.342Z,11.67
2023-05-01T08:30:19.696Z,11.64
2023-05-01T08:32:47.296Z,11.69
2023-05-01T08:35:16.781Z,11.80
2023-05-01T08:37:44.110Z,11.79
2023-05-01T08:40:12.022Z,11.64
2023-05-01T08:42:39.433Z,11.74
2023-05-01T08:45:10.962Z,11.67
2023-05-01T08:47:40.534Z,11.71
2023-05-01T08:50:13.272Z,11.69
2023-05-01T08:52:44.490Z,11.78
2023-05-01T08:55:16.009Z,11.86
2023-05-01T08:57:48.251Z,11.81
2023-05-01T09:00:20.443Z,11.59
2023-05-01T09:02:50.810Z,11.85
2023-05-01T09:05:21.308Z,11.90
2023-05-01T09:07:48.811Z,11.89
2023-05-01T09:10:18.476Z,11.86
2023-05-01T09:12:54.054Z,11.83
2023-05-01T09:15:22.583Z,11.95
2023-05-01T09:17:50.589Z,12.07
2023-05-01T09:20:19.987Z,12.22
2023-05-01T09:22:47.665Z,12.32
2023-05-01T09:25:14.878Z,12.47
2023-05-01T09:27:42.329Z,12.59
2023-05-01T09:30:10.147Z,12.72
2023-05-01T09:32:37.615Z,12.83
2023-05-01T09:35:13.952Z,13.02
2023-05-01T09:37:41.739Z,13.09
2023-05-01T09:40:14.648Z,13.22
2023-05-01T09:42:53.714Z,13.34
2023-05-01T09:45:21.110Z,13.47
2023-05-01T09:47:48.582Z,13.58
2023-05-01T09:50:34.043Z,13.67
2023-05-01T09:53:05.642Z,13.75
2023-05-01T09:55:34.581Z,13.89
2023-05-01T09:58:02.233Z,13.87
2023-05-01T10:00:49.283Z,13.98
2023-05-01T10:03:16.648Z,14.01
2023-05-01T10:05:46.191Z,14.07
2023-05-01T10:08:13.618Z,14.03
2023-05-01T10:10:42.242Z,13.99
2023-05-01T10:13:17.600Z,13.99
2023-05-01T10:15:45.745Z,13.98
2023-05-01T10:18:14.719Z,13.98
2023-05-01T10:20:42.208Z,13.88
2023-05-01T10:23:11.062Z,13.75
2023-05-01T10:25:43.420Z,13.82
2023-05-01T10:28:12.752Z,13.77
2023-05-01T10:30:42.287Z,13.73
2023-05-01T10:33:12.678Z,13.76
2023-05-01T10:35:44.990Z,13.93
2023-05-01T10:38:34.478Z,13.94
2023-05-01T10:41:01.882Z,13.97
2023-05-01T10:43:31.136Z,14.05
2023-05-01T10:46:10.459Z,14.15
2023-05-01T10:48:40.963Z,14.10
2023-05-01T10:51:28.246Z,14.09
2023-05-01T10:54:31.822Z,14.18
2023-05-01T10:57:03.418Z,14.21
2023-05-01T11:00:04.559Z,14.22
2023-05-01T11:02:31.780Z,14.23
2023-05-01T11:04:59.220Z,14.37
2023-05-01T11:07:27.129Z,14.41
2023-05-01T11:09:56.176Z,14.23
2023-05-01T11:12:45.189Z,14.21
2023-05-01T11:15:25.105Z,14.40
2023-05-01T11:17:52.641Z,14.62
2023-05-01T11:20:26.154Z,14.80
2023-05-01T11:22:56.468Z,14.72
2023-05-01T11:25:27.295Z,14.77
2023-05-01T11:28:00.394Z,14.96
2023-05-01T11:30:37.845Z,15.04
2023-05-01T11:33:05.795Z,14.97
2023-05-01T11:35:34.162Z,14.97
2023-05-01T11:38:01.300Z,15.00
2023-05-01T11:40:32.001Z,15.07
2023-05-01T11:43:07.346Z,15.15
2023-05-01T11:45:37.284Z,15.09
2023-05-01T11:48:15.152Z,15.10
2023-05-01T11:50:42.429Z,15.12
2023-05-01T11:53:15.003Z,15.16
2023-05-01T11:55:42.190Z,15.17
2023-05-01T11:58:09.625Z,15.19
2023-05-01T12:00:42.402Z,15.23
2023-05-01T12:03:15.163Z,15.29
2023-05-01T12:05:46.051Z,15.40
2023-05-01T12:08:22.085Z,15.54
2023-05-01T12:10:54.587Z,15.60
2023-05-01T12:13:22.964Z,15.70
2023-05-01T12:15:54.519Z,15.60
2023-05-01T12:18:22.915Z,15.53
2023-05-01T12:20:55.162Z,15.62
2023-05-01T12:23:36.528Z,15.75
2023-05-01T12:26:16.905Z,15.87
2023-05-01T12:29:04.929Z,15.89
2023-05-01T12:31:33.763Z,15.96
2023-05-01T12:34:08.224Z,16.04
2023-05-01T12:36:36.930Z,16.06
2023-05-01T12:39:08.760Z,16.15
2023-05-01T12:41:51.962Z,16.20
2023-05-01T12:44:24.942Z,16.23
2023-05-01T12:47:14.353Z,16.29
2023-05-01T12:49:42.080Z,16.21
2023-05-01T12:52:09.737Z,16.23
2023-05-01T12:54:39.755Z,16.26
2023-05-01T12:57:15.061Z,16.23
2023-05-01T12:59:46.863Z,16.29
2023-05-01T13:02:18.028Z,16.27
2023-05-01T13:04:46.654Z,16.32
2023-05-01T13:07:19.317Z,16.36
2023-05-01T13:09:59.402Z,16.38
2023-05-01T13:12:28.826Z,16.36
2023-05-01T13:14:57.472Z,16.28
2023-05-01T13:17:29.770Z,16.16
2023-05-01T13:20:00.757Z,16.14
2023-05-01T13:22:38.531Z,16.14
2023-05-01T13:25:17.132Z,16.10
2023-05-01T13:27:52.849Z,16.21
2023-05-01T13:30:30.711Z,16.21
2023-05-01T13:32:57.952Z,16.24
2023-05-01T13:35:27.062Z,16.14
2023-05-01T13:37:55.175Z,16.27
2023-05-01T13:40:27.797Z,16.32
2023-05-01T13:42:55.421Z,16.23
2023-05-01T13:45:22.959Z,16.25
2023-05-01T13:47:53.428Z,16.26
2023-05-01T13:50:20.827Z,16.19
2023-05-01T13:52:48.101Z,16.05
2023-05-01T13:55:17.502Z,15.91
2023-05-01T13:57:44.781Z,15.85
2023-05-01T14:00:17.153Z,15.83
2023-05-01T14:02:47.856Z,15.94
2023-05-01T14:05:26.787Z,15.86
2023-05-01T14:08:00.412Z,15.82
2023-05-01T14:10:29.348Z,15.98
2023-05-01T14:12:59.116Z,16.04
2023-05-01T14:15:27.416Z,16.05
2023-05-01T14:17:54.706Z,16.12
2023-05-01T14:20:25.428Z,16.06
2023-05-01T14:22:52.836Z,15.98
2023-05-01T14:25:32.104Z,15.87
2023-05-01T14:28:01.748Z,15.83
2023-05-01T14:30:35.387Z,15.82
2023-05-01T14:33:10.602Z,15.84
2023-05-01T14:35:53.644Z,15.88
2023-05-01T14:38:22.488Z,15.94
2023-05-01T14:40:49.933Z,15.88
2023-05-01T14:43:20.244Z,15.94
2023-05-01T14:45:47.747Z,15.98
2023-05-01T14:48:22.287Z,15.91
2023-05-01T14:50:51.008Z,15.85
2023-05-01T14:53:18.735Z,15.77
2023-05-01T14:55:49.640Z,15.66
2023-05-01T14:58:17.075Z,15.63
2023-05-01T15:00:44.435Z,15.65
2023-05-01T15:03:11.832Z,15.55
2023-05-01T15:05:39.215Z,15.64
2023-05-01T15:08:06.499Z,15.52
2023-05-01T15:10:33.967Z,15.46
2023-05-01T15:13:01.627Z,15.42
2023-05-01T15:15:28.873Z,15.40
2023-05-01T15:17:56.387Z,15.43
2023-05-01T15:20:23.939Z,15.48
2023-05-01T15:22:51.434Z,15.39
2023-05-01T15:25:18.837Z,15.47
2023-05-01T15:27:46.635Z,15.49
2023-05-01T15:30:15.410Z,15.54
2023-05-01T15:32:43.038Z,15.60
2023-05-01T15:35:10.470Z,15.60
2023-05-01T15:37:37.824Z,15.58
2023-05-01T15:40:06.676Z,15.45
2023-05-01T15:42:36.720Z,15.42
2023-05-01T15:45:04.440Z,15.31
2023-05-01T15:47:31.704Z,15.36
2023-05-01T15:49:59.319Z,15.27
2023-05-01T15:52:26.662Z,15.24
2023-05-01T15:54:54.028Z,15.23
2023-05-01T15:57:21.217Z,15.26
2023-05-01T15:59:49.073Z,15.26
2023-05-01T16:02:16.397Z,15.18
2023-05-01T16:04:46.369Z,15.11
2023-05-01T16:07:14.524Z,15.09
2023-05-01T16:09:42.671Z,15.04
2023-05-01T16:12:09.935Z,15.02
2023-05-01T16:14:40.187Z,14.99
2023-05-01T16:17:08.043Z,15.04
2023-05-01T16:19:35.560Z,14.98
2023-05-01T16:22:06.561Z,14.93
2023-05-01T16:24:34.802Z,15.01
2023-05-01T16:27:03.106Z,15.02
2023-05-01T16:29:34.081Z,14.99
2023-05-01T16:32:03.962Z,15.05
2023-05-01T16:34:32.083Z,15.04
2023-05-01T16:36:59.378Z,15.06
2023-05-01T16:39:26.617Z,15.06
2023-05-01T16:41:55.413Z,15.06
2023-05-01T16:44:23.249Z,15.06
2023-05-01T16:46:56.558Z,15.09
2023-05-01T16:49:26.409Z,15.03
2023-05-01T16:51:54.085Z,15.07
2023-05-01T16:54:21.363Z,15.09
2023-05-01T16:56:48.907Z,15.02
2023-05-01T16:59:16.610Z,15.03
2023-05-01T17:01:44.209Z,15.00
2023-05-01T17:04:13.036Z,14.86
2023-05-01T17:06:40.319Z,14.86
2023-05-01T17:09:07.616Z,14.84
2023-05-01T17:11:35.348Z,14.85
2023-05-01T17:14:03.244Z,14.83
2023-05-01T17:16:42.437Z,14.87
2023-05-01T17:19:09.766Z,14.81
2023-05-01T17:21:46.065Z,14.83
2023-05-01T17:24:13.419Z,14.82
2023-05-01T17:26:40.680Z,14.78
2023-05-01T17:29:08.170Z,14.77
2023-05-01T17:31:35.472Z,14.78
2023-05-01T17:34:02.693Z,14.75
2023-05-01T17:36:30.302Z,14.72
2023-05-01T17:38:57.977Z,14.71
2023-05-01T17:41:25.181Z,14.68
2023-05-01T17:43:52.523Z,14.64
2023-05-01T17:46:19.911Z,14.60
2023-05-01T17:48:47.570Z,14.58
2023-05-01T17:51:15.315Z,14.56
2023-05-01T17:53:43.013Z,14.46
2023-05-01T17:56:10.449Z,14.44
2023-05-01T17:58:37.754Z,14.44
2023-05-01T18:01:05.220Z,14.40
2023-05-01T18:03:32.751Z,14.36
2023-05-01T18:06:02.156Z,14.32
2023-05-01T18:08:29.323Z,14.31
2023-05-01T18:10:56.488Z,14.27
2023-05-01T18:13:24.031Z,14.26
2023-05-01T18:15:52.028Z,14.23
2023-05-01T18:18:19.631Z,14.18
2023-05-01T18:20:47.118Z,14.16
2023-05-01T18:23:14.603Z,14.12
2023-05-01T18:25:41.778Z,14.07
2023-05-01T18:28:09.098Z,14.04
2023-05-01T18:30:36.266Z,14.03
2023-05-01T18:33:03.646Z,13.99
2023-05-01T18:35:30.897Z,13.95
2023-05-01T18:37:58.108Z,13.94
2023-05-01T18:40:25.348Z,13.88
2023-05-01T18:42:52.504Z,13.85
2023-05-01T18:45:19.706Z,13.82
2023-05-01T18:47:47.169Z,13.78
2023-05-01T18:50:14.445Z,13.79
2023-05-01T18:52:41.720Z,13.74
2023-05-01T18:55:10.105Z,13.73
2023-05-01T18:57:37.586Z,13.68
2023-05-01T19:00:05.767Z,13.66
2023-05-01T19:02:32.992Z,13.62
2023-05-01T19:05:00.338Z,13.58
2023-05-01T19:07:27.616Z,13.57
2023-05-01T19:09:55.178Z,13.58
2023-05-01T19:12:22.468Z,13.56
2023-05-01T19:14:49.584Z,13.56
2023-05-01T19:17:16.910Z,13.53
2023-05-01T19:19:44.096Z,13.48
2023-05-01T19:22:11.500Z,13.41
2023-05-01T19:24:38.925Z,13.42
2023-05-01T19:27:06.286Z,13.41
2023-05-01T19:29:33.960Z,13.38
2023-05-01T19:32:01.228Z,13.36
2023-05-01T19:34:29.098Z,13.36
2023-05-01T19:36:56.282Z,13.33
2023-05-01T19:39:24.256Z,13.27
2023-05-01T19:41:51.587Z,13.27
2023-05-01T19:44:19.025Z,13.28
2023-05-01T19:46:46.610Z,13.23
2023-05-01T19:49:13.849Z,13.20
2023-05-01T19:51:41.110Z,13.20
2023-05-01T19:54:08.395Z,13.15
2023-05-01T19:56:35.704Z,13.13
2023-05-01T19:59:02.936Z,13.08
2023-05-01T20:01:30.449Z,13.06
2023-05-01T20:03:57.869Z,13.04
2023-05-01T20:06:25.193Z,13.04
2023-05-01T20:08:52.440Z,13.04
2023-05-01T20:11:19.858Z,12.98
2023-05-01T20:13:47.228Z,12.97
2023-05-01T20:16:14.892Z,12.98
2023-05-01T20:18:42.365Z,12.96
2023-05-01T20:21:09.930Z,12.96
2023-05-01T20:23:37.443Z,12.92
2023-05-01T20:26:04.849Z,12.89
2023-05-01T20:28:32.085Z,12.87
2023-05-01T20:30:59.415Z,12.82
2023-05-01T20:33:26.706Z,12.80
2023-05-01T20:35:54.270Z,12.81
2023-05-01T20:38:21.771Z,12.80
2023-05-01T20:40:49.408Z,12.75
2023-05-01T20:43:17.086Z,12.79
2023-05-01T20:45:44.703Z,12.77
2023-05-01T20:48:12.359Z,12.74
2023-05-01T20:50:39.867Z,12.73
2023-05-01T20:53:07.479Z,12.72
2023-05-01T20:55:35.045Z,12.70
2023-05-01T20:58:02.572Z,12.69
2023-05-01T21:00:30.366Z,12.68
2023-05-01T21:02:58.162Z,12.60
2023-05-01T21:05:25.919Z,12.61
2023-05-01T21:07:53.611Z,12.60
2023-05-01T21:10:21.249Z,12.54
2023-05-01T21:12:48.833Z,12.50
2023-05-01T21:15:16.476Z,12.49
2023-05-01T21:17:44.078Z,12.47
2023-05-01T21:20:32.004Z,12.42
2023-05-01T21:23:03.390Z,12.41
2023-05-01T21:25:31.008Z,12.38
2023-05-01T21:27:58.773Z,12.37
2023-05-01T21:30:34.818Z,12.35
2023-05-01T21:33:07.606Z,12.34
2023-05-01T21:35:35.935Z,12.31
2023-05-01T21:38:04.775Z,12.29
2023-05-01T21:40:41.105Z,12.25
2023-05-01T21:43:09.156Z,12.19
2023-05-01T21:45:36.776Z,12.15
2023-05-01T21:48:04.606Z,12.07
2023-05-01T21:50:35.616Z,12.06
2023-05-01T21:53:03.916Z,12.01
2023-05-01T21:55:32.359Z,11.99
2023-05-01T21:58:00.068Z,11.96
2023-05-01T22:00:27.723Z,11.94
2023-05-01T22:02:55.457Z,11.94
2023-05-01T22:05:23.643Z,11.90
2023-05-01T22:07:51.561Z,11.86
2023-05-01T22:10:20.298Z,11.78
2023-05-01T22:12:48.243Z,11.80
2023-05-01T22:15:15.967Z,11.79
2023-05-01T22:17:44.096Z,11.72
2023-05-01T22:20:11.863Z,11.73
2023-05-01T22:22:41.270Z,11.72
2023-05-01T22:25:10.120Z,11.72
2023-05-01T22:27:38.138Z,11.67
2023-05-01T22:30:06.683Z,11.65
2023-05-01T22:32:34.342Z,11.60
2023-05-01T22:35:02.423Z,11.60
2023-05-01T22:37:29.957Z,11.61
2023-05-01T22:39:57.815Z,11.59
2023-05-01T22:42:25.564Z,11.55
2023-05-01T22:44:53.296Z,11.56
2023-05-01T22:47:20.834Z,11.56
2023-05-01T22:49:48.332Z,11.53
2023-05-01T22:52:15.857Z,11.57
2023-05-01T22:54:43.407Z,11.55
2023-05-01T22:57:10.951Z,11.54
2023-05-01T22:59:38.554Z,11.53
2023-05-01T23:02:06.412Z,11.54
2023-05-01T23:04:34.332Z,11.53
2023-05-01T23:07:01.990Z,11.52
2023-05-01T23:09:31.229Z,11.52
2023-05-01T23:11:58.728Z,11.52
2023-05-01T23:14:26.484Z,11.51
2023-05-01T23:16:54.087Z,11.53
2023-05-01T23:19:25.419Z,11.52
2023-05-01T23:22:05.894Z,11.48
2023-05-01T23:24:41.330Z,11.44
2023-05-01T23:27:09.222Z,11.44
2023-05-01T23:29:36.820Z,11.43
2023-05-01T23:32:04.868Z,11.40
2023-05-01T23:34:32.810Z,11.39
2023-05-01T23:37:00.357Z,11.40
2023-05-01T23:39:27.941Z,11.37
2023-05-01T23:41:55.506Z,11.36
2023-05-01T23:44:23.192Z,11.35
2023-05-01T23:46:50.864Z,11.32
2023-05-01T23:49:19.219Z,11.31
2023-05-01T23:51:46.846Z,11.30
2023-05-01T23:54:14.370Z,11.29
2023-05-01T23:56:41.894Z,11.26
2023-05-01T23:59:09.419Z,11.25
